Strona główna
METAR-TAF:

METAR-TAF

Lotnisko :

Port lotniczy Pago Pago

Pago Pago, Dalekie Wyspy Mniejsze Stanów Zjednoczonych

Szerokość geograficzna: 14-20S, Długość geograficzna: 170-43W, wysokość: 3 m

Aktualna obserwacja pogody

Raport powstał 44 minut temu, godzina 11:52 UTC
Wiatr 10 kt od wschód
Temperatura 27°C
Wilgotność 79%
Ciśnienie 1013 hPa
Widzialność: 16.1 km
Mało chmury na wysokości 1800 ft
Rozproszone chmury na wysokości 4000 ft

METAR: NSTU 181152Z 09010KT 10SM FEW018 SCT040 27/23 A2990 RMK SLP125 70003 8/800 T02660229 10273 20266 56002

czas: 01:36 (12:36 UTC)

Prognoza

Raport powstał 1 godzina i 0 minut temu, godzina 11:36 UTC
Prognoza ważna od 18 godzina 12 UTC do 19 godzina 12 UTC
Wiatr 9 kt od wschód
Widzialność: 10 km
Rozproszone chmury na wysokości 2000 ft
Rozproszone chmury na wysokości 4000 ft
Rozproszone chmury na wysokości 10000 ft
przelotny w pobliże

TAF: NSTU 181136Z 1812/1912 10009KT P6SM VCSH SCT020 SCT040 SCT100

Obserwacja i prognoza pogody dla ponad 4000 lotnisk (raport METAR i TAF).

Dostępne stacje oznaczono żółtymi i czerwonymi punktami na mapie.

Najedź kursorem aby zobaczyć nazwę stacji.

Kliknij aby zobaczyć obserwacje i prognozy pogody.

Aby zmienić mapę: kliknij na zielony przycisk z czarnym krzyżykiem, aby powiększyć; na zielony przycisk z myślnikiem, aby pomniejszyć; na zielone strzałki, aby przejść do map sąsiednich.


METAR-TAF: